createdAt,value
2023-04-06T00:02:10.774Z,77.64
2023-04-06T00:04:39.014Z,78.34
2023-04-06T00:07:07.330Z,78.44
2023-04-06T00:09:35.604Z,78.38
2023-04-06T00:12:03.646Z,77.88
2023-04-06T00:14:31.647Z,77.71
2023-04-06T00:16:59.661Z,77.49
2023-04-06T00:19:27.757Z,77.28
2023-04-06T00:21:56.122Z,77.39
2023-04-06T00:24:24.049Z,77.41
2023-04-06T00:26:52.042Z,77.27
2023-04-06T00:29:19.883Z,77.15
2023-04-06T00:31:47.762Z,77.91
2023-04-06T00:34:17.191Z,77.82
2023-04-06T00:36:45.084Z,77.74
2023-04-06T00:39:12.997Z,77.94
2023-04-06T00:41:47.372Z,78.27
2023-04-06T00:44:15.580Z,78.28
2023-04-06T00:46:45.621Z,78.26
2023-04-06T00:49:13.543Z,78.21
2023-04-06T00:51:41.880Z,78.48
2023-04-06T00:54:09.803Z,79.29
2023-04-06T00:56:37.917Z,79.10
2023-04-06T00:59:06.484Z,79.04
2023-04-06T01:01:35.343Z,78.88
2023-04-06T01:04:07.353Z,79.30
2023-04-06T01:06:41.239Z,79.47
2023-04-06T01:09:09.577Z,79.21
2023-04-06T01:11:37.809Z,78.73
2023-04-06T01:14:06.903Z,78.78
2023-04-06T01:16:50.433Z,79.04
2023-04-06T01:19:23.178Z,79.81
2023-04-06T01:21:54.376Z,80.23
2023-04-06T01:24:31.467Z,81.48
2023-04-06T01:27:10.182Z,80.61
2023-04-06T01:29:46.534Z,80.55
2023-04-06T01:32:16.769Z,81.54
2023-04-06T01:34:49.176Z,81.78
2023-04-06T01:37:17.067Z,81.78
2023-04-06T01:39:46.371Z,81.55
2023-04-06T01:42:18.940Z,81.04
2023-04-06T01:44:48.610Z,80.46
2023-04-06T01:47:17.040Z,80.42
2023-04-06T01:49:46.118Z,80.32
2023-04-06T01:52:15.229Z,80.11
2023-04-06T01:54:44.465Z,81.23
2023-04-06T01:57:16.544Z,81.87
2023-04-06T01:59:48.744Z,82.07
2023-04-06T02:02:22.603Z,81.35
2023-04-06T02:04:58.820Z,81.23
2023-04-06T02:07:27.082Z,81.26
2023-04-06T02:09:56.782Z,81.80
2023-04-06T02:12:29.623Z,81.30
2023-04-06T02:14:57.807Z,81.04
2023-04-06T02:17:25.772Z,81.71
2023-04-06T02:19:53.720Z,82.54
2023-04-06T02:22:21.804Z,82.47
2023-04-06T02:24:49.710Z,81.67
2023-04-06T02:27:17.621Z,81.19
2023-04-06T02:29:48.270Z,81.33
2023-04-06T02:32:20.840Z,82.18
2023-04-06T02:34:49.010Z,82.58
2023-04-06T02:37:17.537Z,82.69
2023-04-06T02:39:45.507Z,82.45
2023-04-06T02:42:16.233Z,82.70
2023-04-06T02:44:44.879Z,82.97
2023-04-06T02:47:13.072Z,84.03
2023-04-06T02:49:41.732Z,85.68
2023-04-06T02:52:09.734Z,85.97
2023-04-06T02:54:38.263Z,86.81
2023-04-06T02:57:06.949Z,86.68
2023-04-06T02:59:41.390Z,86.00
2023-04-06T03:02:14.767Z,85.18
2023-04-06T03:04:45.559Z,84.14
2023-04-06T03:07:21.943Z,83.90
2023-04-06T03:09:49.803Z,84.07
2023-04-06T03:12:19.143Z,84.52
2023-04-06T03:15:07.755Z,84.86
2023-04-06T03:17:36.649Z,84.56
2023-04-06T03:20:06.327Z,84.64
2023-04-06T03:22:34.549Z,85.12
2023-04-06T03:25:03.852Z,85.47
2023-04-06T03:27:33.768Z,85.62
2023-04-06T03:30:03.245Z,85.79
2023-04-06T03:32:34.371Z,85.67
2023-04-06T03:35:03.912Z,85.86
2023-04-06T03:37:32.682Z,86.58
2023-04-06T03:40:05.790Z,87.80
2023-04-06T03:42:33.965Z,88.44
2023-04-06T03:45:09.702Z,88.81
2023-04-06T03:47:39.390Z,88.59
2023-04-06T03:50:08.002Z,87.93
2023-04-06T03:52:37.455Z,87.44
2023-04-06T03:55:06.354Z,87.58
2023-04-06T03:57:34.377Z,88.09
2023-04-06T04:00:02.230Z,87.64
2023-04-06T04:02:40.757Z,87.20
2023-04-06T04:05:09.278Z,86.79
2023-04-06T04:07:38.568Z,87.04
2023-04-06T04:10:07.857Z,87.21
2023-04-06T04:12:36.402Z,87.05
2023-04-06T04:15:04.962Z,86.68
2023-04-06T04:17:33.350Z,86.27
2023-04-06T04:20:01.221Z,86.02
2023-04-06T04:22:29.182Z,86.41
2023-04-06T04:24:57.043Z,87.15
2023-04-06T04:27:25.143Z,87.20
2023-04-06T04:29:53.230Z,86.53
2023-04-06T04:32:21.753Z,85.82
2023-04-06T04:34:50.916Z,85.74
2023-04-06T04:37:31.711Z,85.68
2023-04-06T04:40:00.042Z,85.58
2023-04-06T04:42:30.963Z,85.83
2023-04-06T04:44:59.918Z,86.04
2023-04-06T04:47:34.481Z,86.18
2023-04-06T04:50:02.472Z,86.44
2023-04-06T04:52:30.965Z,86.56
2023-04-06T04:55:11.990Z,87.17
2023-04-06T04:57:40.521Z,87.31
2023-04-06T05:00:08.892Z,87.76
2023-04-06T05:02:38.082Z,87.13
2023-04-06T05:05:17.843Z,87.21
2023-04-06T05:07:45.986Z,87.26
2023-04-06T05:10:21.627Z,87.26
2023-04-06T05:12:54.419Z,87.70
2023-04-06T05:15:22.656Z,87.47
2023-04-06T05:17:53.211Z,87.52
2023-04-06T05:20:24.898Z,87.82
2023-04-06T05:22:52.932Z,88.84
2023-04-06T05:25:21.123Z,89.23
2023-04-06T05:27:51.166Z,88.95
2023-04-06T05:30:31.525Z,88.92
2023-04-06T05:33:00.632Z,89.14
2023-04-06T05:35:32.512Z,88.95
2023-04-06T05:38:02.980Z,88.75
2023-04-06T05:40:31.354Z,90.02
2023-04-06T05:42:59.508Z,90.70
2023-04-06T05:45:27.466Z,90.23
2023-04-06T05:47:57.160Z,90.20
2023-04-06T05:50:28.785Z,89.55
2023-04-06T05:52:57.510Z,89.40
2023-04-06T05:55:29.082Z,89.61
2023-04-06T05:58:07.399Z,89.89
2023-04-06T06:00:35.520Z,90.01
2023-04-06T06:03:06.884Z,89.46
2023-04-06T06:05:35.952Z,89.21
2023-04-06T06:08:11.382Z,88.79
2023-04-06T06:10:41.357Z,88.83
2023-04-06T06:13:11.384Z,88.56
2023-04-06T06:15:39.560Z,88.34
2023-04-06T06:18:07.936Z,87.89
2023-04-06T06:20:36.481Z,88.15
2023-04-06T06:23:05.860Z,86.90
2023-04-06T06:25:34.329Z,87.11
2023-04-06T06:28:02.258Z,86.94
2023-04-06T06:30:31.891Z,87.03
2023-04-06T06:33:01.350Z,86.69
2023-04-06T06:35:30.016Z,86.58
2023-04-06T06:37:58.232Z,85.60
2023-04-06T06:40:28.371Z,86.22
2023-04-06T06:42:56.932Z,86.37
2023-04-06T06:45:47.932Z,85.78
2023-04-06T06:48:16.234Z,85.36
2023-04-06T06:50:44.214Z,85.28
2023-04-06T06:53:13.773Z,84.34
2023-04-06T06:55:41.801Z,83.87
2023-04-06T06:58:11.372Z,83.77
2023-04-06T07:00:39.488Z,82.39
2023-04-06T07:03:07.841Z,83.15
2023-04-06T07:05:36.563Z,81.91
2023-04-06T07:08:04.833Z,80.99
2023-04-06T07:10:32.855Z,81.13
2023-04-06T07:13:01.451Z,81.27
2023-04-06T07:15:29.447Z,77.24
2023-04-06T07:17:57.570Z,77.29
2023-04-06T07:20:25.617Z,77.53
2023-04-06T07:22:53.664Z,75.67
2023-04-06T07:25:24.297Z,76.54
2023-04-06T07:27:53.507Z,74.57
2023-04-06T07:30:23.050Z,74.80
2023-04-06T07:32:51.033Z,74.72
2023-04-06T07:35:19.298Z,70.64
2023-04-06T07:37:47.802Z,72.62
2023-04-06T07:40:15.977Z,72.74
2023-04-06T07:42:44.548Z,71.10
2023-04-06T07:45:12.743Z,69.85
2023-04-06T07:47:40.788Z,68.84
2023-04-06T07:50:09.664Z,68.16
2023-04-06T07:52:38.610Z,67.60
2023-04-06T07:55:07.528Z,67.49
2023-04-06T07:57:35.460Z,65.74
2023-04-06T08:00:04.919Z,65.29
2023-04-06T08:02:40.682Z,65.92
2023-04-06T08:05:09.331Z,65.02
2023-04-06T08:07:37.593Z,65.73
2023-04-06T08:10:05.919Z,65.67
2023-04-06T08:12:35.195Z,63.81
2023-04-06T08:15:04.637Z,63.97
2023-04-06T08:17:33.536Z,64.22
2023-04-06T08:20:01.881Z,63.47
2023-04-06T08:22:29.869Z,63.20
2023-04-06T08:24:57.825Z,63.12
2023-04-06T08:27:26.068Z,62.01
2023-04-06T08:29:54.040Z,61.51
2023-04-06T08:32:22.146Z,61.92
2023-04-06T08:34:50.176Z,61.99
2023-04-06T08:37:18.076Z,61.42
2023-04-06T08:39:45.927Z,59.93
2023-04-06T08:42:20.318Z,59.79
2023-04-06T08:44:50.423Z,60.02
2023-04-06T08:47:18.457Z,59.58
2023-04-06T08:49:47.327Z,59.76
2023-04-06T08:52:19.431Z,59.42
2023-04-06T08:54:48.673Z,58.74
2023-04-06T08:57:18.455Z,58.58
2023-04-06T08:59:46.728Z,55.91
2023-04-06T09:02:19.329Z,56.00
2023-04-06T09:04:50.064Z,56.71
2023-04-06T09:07:18.168Z,57.09
2023-04-06T09:09:49.192Z,56.23
2023-04-06T09:12:25.038Z,55.87
2023-04-06T09:14:54.155Z,55.24
2023-04-06T09:17:31.101Z,56.27
2023-04-06T09:20:00.512Z,49.01
2023-04-06T09:22:38.034Z,49.50
2023-04-06T09:25:07.286Z,51.08
2023-04-06T09:27:38.098Z,49.86
2023-04-06T09:30:14.850Z,49.41
2023-04-06T09:32:55.471Z,50.56
2023-04-06T09:35:24.617Z,49.53
2023-04-06T09:37:53.751Z,49.47
2023-04-06T09:40:23.420Z,49.48
2023-04-06T09:42:58.629Z,46.91
2023-04-06T09:45:31.032Z,49.55
2023-04-06T09:47:59.518Z,47.63
2023-04-06T09:50:28.543Z,45.39
2023-04-06T09:52:59.925Z,46.23
2023-04-06T09:55:32.565Z,47.57
2023-04-06T09:58:08.445Z,46.26
2023-04-06T10:00:48.067Z,44.58
2023-04-06T10:03:40.041Z,44.40
2023-04-06T10:06:13.953Z,46.69
2023-04-06T10:08:47.066Z,45.40
2023-04-06T10:11:16.581Z,46.97
2023-04-06T10:13:48.311Z,46.61
2023-04-06T10:16:16.683Z,46.40
2023-04-06T10:18:53.290Z,46.10
2023-04-06T10:21:24.912Z,47.09
2023-04-06T10:23:57.265Z,47.18
2023-04-06T10:26:25.200Z,46.62
2023-04-06T10:28:53.866Z,45.30
2023-04-06T10:31:29.896Z,44.87
2023-04-06T10:34:02.186Z,45.25
2023-04-06T10:36:34.470Z,45.90
2023-04-06T10:39:07.420Z,46.21
2023-04-06T10:41:49.305Z,44.66
2023-04-06T10:44:25.149Z,44.64
2023-04-06T10:46:57.606Z,45.10
2023-04-06T10:49:28.650Z,42.86
2023-04-06T10:51:57.727Z,42.57
2023-04-06T10:54:27.918Z,42.67
2023-04-06T10:56:57.635Z,43.11
2023-04-06T10:59:26.446Z,42.47
2023-04-06T11:01:56.897Z,42.70
2023-04-06T11:04:26.349Z,42.94
2023-04-06T11:06:56.160Z,42.03
2023-04-06T11:09:33.311Z,43.08
2023-04-06T11:12:01.981Z,41.95
2023-04-06T11:14:29.926Z,42.78
2023-04-06T11:16:57.960Z,43.68
2023-04-06T11:19:26.255Z,41.91
2023-04-06T11:21:54.126Z,42.03
2023-04-06T11:24:23.994Z,43.10
2023-04-06T11:26:55.457Z,43.08
2023-04-06T11:29:24.829Z,42.68
2023-04-06T11:32:03.775Z,42.35
2023-04-06T11:34:34.283Z,41.25
2023-04-06T11:37:06.853Z,42.49
2023-04-06T11:39:41.509Z,40.11
2023-04-06T11:42:09.703Z,40.33
2023-04-06T11:44:40.197Z,39.85
2023-04-06T11:47:10.390Z,40.80
2023-04-06T11:49:40.373Z,38.99
2023-04-06T11:52:18.613Z,38.88
2023-04-06T11:54:48.167Z,38.06
2023-04-06T11:57:17.856Z,38.29
2023-04-06T11:59:46.108Z,38.55
2023-04-06T12:02:14.081Z,38.87
2023-04-06T12:04:42.185Z,39.36
2023-04-06T12:07:10.341Z,39.11
2023-04-06T12:09:38.326Z,38.29
2023-04-06T12:12:06.407Z,39.53
2023-04-06T12:14:34.389Z,39.98
2023-04-06T12:17:02.405Z,40.32
2023-04-06T12:19:31.152Z,39.94
2023-04-06T12:21:59.948Z,38.32
2023-04-06T12:24:30.012Z,37.35
2023-04-06T12:27:08.823Z,37.21
2023-04-06T12:29:38.966Z,38.26
2023-04-06T12:32:07.341Z,37.49
2023-04-06T12:34:35.841Z,37.10
2023-04-06T12:37:04.202Z,37.68
2023-04-06T12:39:32.618Z,37.58
2023-04-06T12:42:02.610Z,37.24
2023-04-06T12:44:30.810Z,37.74
2023-04-06T12:46:58.712Z,36.90
2023-04-06T12:49:27.070Z,38.39
2023-04-06T12:51:55.025Z,37.86
2023-04-06T12:54:22.951Z,37.50
2023-04-06T12:56:50.892Z,37.46
2023-04-06T12:59:18.874Z,37.81
2023-04-06T13:01:46.929Z,38.52
2023-04-06T13:04:14.890Z,38.25
2023-04-06T13:06:42.846Z,37.94
2023-04-06T13:09:11.022Z,37.89
2023-04-06T13:11:39.888Z,38.35
2023-04-06T13:14:07.796Z,38.21
2023-04-06T13:16:36.361Z,38.26
2023-04-06T13:19:04.302Z,37.81
2023-04-06T13:21:32.563Z,38.36
2023-04-06T13:24:01.147Z,38.86
2023-04-06T13:26:29.750Z,38.98
2023-04-06T13:28:57.823Z,38.74
2023-04-06T13:31:26.477Z,39.22
2023-04-06T13:33:54.348Z,39.28
2023-04-06T13:36:23.672Z,39.41
2023-04-06T13:38:51.634Z,38.57
2023-04-06T13:41:22.449Z,39.37
2023-04-06T13:43:50.966Z,39.38
2023-04-06T13:46:19.671Z,39.20
2023-04-06T13:48:48.266Z,39.49
2023-04-06T13:51:16.656Z,39.35
2023-04-06T13:53:44.645Z,39.22
2023-04-06T13:56:12.645Z,38.92
2023-04-06T13:58:40.805Z,39.26
2023-04-06T14:01:11.372Z,39.31
2023-04-06T14:03:43.161Z,39.19
2023-04-06T14:06:29.654Z,39.12
2023-04-06T14:08:59.692Z,38.86
2023-04-06T14:11:27.779Z,39.27
2023-04-06T14:13:58.033Z,39.58
2023-04-06T14:16:27.420Z,39.67
2023-04-06T14:18:56.215Z,40.07
2023-04-06T14:21:24.502Z,40.33
2023-04-06T14:23:53.635Z,39.67
2023-04-06T14:26:22.043Z,39.94
2023-04-06T14:28:50.151Z,40.24
2023-04-06T14:31:18.236Z,39.78
2023-04-06T14:33:46.538Z,39.43
2023-04-06T14:36:14.915Z,39.81
2023-04-06T14:38:44.966Z,39.88
2023-04-06T14:41:17.328Z,39.25
2023-04-06T14:43:47.099Z,39.49
2023-04-06T14:46:19.043Z,40.20
2023-04-06T14:48:48.924Z,39.75
2023-04-06T14:51:17.801Z,40.30
2023-04-06T14:53:45.862Z,40.48
2023-04-06T14:56:14.066Z,40.69
2023-04-06T14:58:41.920Z,41.19
2023-04-06T15:01:09.845Z,41.53
2023-04-06T15:03:37.982Z,41.71
2023-04-06T15:06:15.931Z,41.45
2023-04-06T15:08:44.656Z,41.72
2023-04-06T15:11:13.705Z,42.02
2023-04-06T15:13:42.667Z,42.13
2023-04-06T15:16:11.339Z,41.90
2023-04-06T15:18:39.173Z,41.60
2023-04-06T15:21:08.170Z,41.71
2023-04-06T15:23:36.296Z,41.51
2023-04-06T15:26:04.981Z,41.40
2023-04-06T15:28:32.837Z,41.47
2023-04-06T15:31:00.880Z,41.53
2023-04-06T15:33:28.739Z,41.27
2023-04-06T15:35:56.777Z,40.97
2023-04-06T15:38:24.675Z,41.35
2023-04-06T15:40:52.801Z,41.30
2023-04-06T15:43:20.753Z,41.33
2023-04-06T15:45:48.758Z,41.28
2023-04-06T15:48:16.629Z,40.73
2023-04-06T15:50:44.566Z,40.69
2023-04-06T15:53:12.891Z,41.05
2023-04-06T15:55:40.962Z,40.66
2023-04-06T15:58:08.918Z,40.49
2023-04-06T16:00:37.227Z,40.21
2023-04-06T16:03:05.375Z,40.27
2023-04-06T16:05:34.843Z,40.27
2023-04-06T16:08:08.353Z,39.88
2023-04-06T16:10:36.183Z,40.08
2023-04-06T16:13:04.103Z,40.09
2023-04-06T16:15:32.028Z,39.09
2023-04-06T16:18:00.107Z,37.10
2023-04-06T16:20:28.438Z,37.06
2023-04-06T16:22:56.668Z,35.99
2023-04-06T16:25:24.553Z,36.60
2023-04-06T16:27:52.507Z,35.88
2023-04-06T16:30:20.749Z,35.80
2023-04-06T16:32:51.919Z,36.25
2023-04-06T16:35:20.764Z,36.55
2023-04-06T16:37:49.938Z,36.64
2023-04-06T16:40:18.119Z,36.67
2023-04-06T16:42:46.877Z,36.40
2023-04-06T16:45:15.990Z,37.21
2023-04-06T16:47:43.817Z,37.14
2023-04-06T16:50:11.797Z,37.72
2023-04-06T16:52:39.737Z,38.12
2023-04-06T16:55:08.295Z,38.25
2023-04-06T16:57:36.358Z,38.43
2023-04-06T17:00:07.535Z,39.13
2023-04-06T17:02:37.038Z,39.74
2023-04-06T17:05:06.641Z,40.16
2023-04-06T17:07:36.323Z,40.37
2023-04-06T17:10:06.843Z,40.31
2023-04-06T17:12:35.013Z,40.18
2023-04-06T17:15:02.991Z,39.67
2023-04-06T17:17:30.940Z,38.89
2023-04-06T17:19:58.819Z,39.56
2023-04-06T17:22:26.946Z,40.25
2023-04-06T17:24:54.903Z,40.83
2023-04-06T17:27:23.729Z,41.92
2023-04-06T17:29:52.305Z,42.08
2023-04-06T17:32:22.079Z,42.68
2023-04-06T17:34:50.393Z,43.13
2023-04-06T17:37:18.299Z,43.26
2023-04-06T17:39:46.952Z,43.88
2023-04-06T17:42:14.973Z,44.33
2023-04-06T17:44:42.906Z,44.21
2023-04-06T17:47:11.085Z,44.61
2023-04-06T17:49:39.231Z,45.25
2023-04-06T17:52:07.782Z,45.75
2023-04-06T17:54:36.130Z,45.96
2023-04-06T17:57:05.831Z,45.80
2023-04-06T17:59:33.843Z,46.04
2023-04-06T18:02:03.268Z,46.40
2023-04-06T18:04:31.465Z,46.71
2023-04-06T18:06:59.929Z,46.68
2023-04-06T18:09:32.084Z,46.85
2023-04-06T18:12:01.371Z,46.90
2023-04-06T18:14:30.310Z,47.27
2023-04-06T18:16:58.539Z,47.73
2023-04-06T18:19:28.922Z,48.08
2023-04-06T18:21:57.192Z,48.45
2023-04-06T18:24:40.511Z,48.88
2023-04-06T18:27:13.065Z,49.35
2023-04-06T18:29:44.354Z,49.81
2023-04-06T18:32:18.532Z,49.83
2023-04-06T18:34:46.788Z,50.35
2023-04-06T18:37:16.287Z,51.17
2023-04-06T18:39:44.468Z,50.99
2023-04-06T18:42:13.153Z,52.04
2023-04-06T18:44:41.640Z,52.66
2023-04-06T18:47:10.427Z,52.45
2023-04-06T18:49:38.576Z,52.99
2023-04-06T18:52:06.593Z,53.46
2023-04-06T18:54:34.944Z,53.38
2023-04-06T18:57:04.338Z,53.75
2023-04-06T18:59:32.289Z,54.37
2023-04-06T19:02:00.704Z,54.23
2023-04-06T19:04:29.874Z,54.47
2023-04-06T19:07:00.908Z,54.49
2023-04-06T19:09:29.417Z,54.87
2023-04-06T19:11:57.713Z,55.65
2023-04-06T19:14:25.853Z,55.99
2023-04-06T19:16:54.324Z,56.46
2023-04-06T19:19:22.522Z,57.00
2023-04-06T19:21:50.884Z,56.99
2023-04-06T19:24:18.917Z,57.34
2023-04-06T19:26:47.330Z,58.04
2023-04-06T19:29:15.517Z,58.65
2023-04-06T19:31:43.511Z,57.99
2023-04-06T19:34:17.465Z,58.57
2023-04-06T19:36:46.321Z,58.98
2023-04-06T19:39:18.241Z,58.21
2023-04-06T19:41:46.501Z,58.57
2023-04-06T19:44:14.510Z,58.44
2023-04-06T19:46:42.884Z,58.59
2023-04-06T19:49:11.046Z,58.23
2023-04-06T19:51:39.230Z,58.25
2023-04-06T19:54:07.772Z,58.48
2023-04-06T19:56:35.847Z,58.85
2023-04-06T19:59:03.991Z,58.96
2023-04-06T20:01:32.432Z,58.66
2023-04-06T20:04:00.888Z,58.64
2023-04-06T20:06:30.219Z,58.58
2023-04-06T20:08:58.235Z,58.77
2023-04-06T20:11:27.262Z,58.58
2023-04-06T20:13:55.239Z,58.65
2023-04-06T20:16:24.182Z,58.68
2023-04-06T20:18:52.150Z,58.58
2023-04-06T20:21:20.034Z,58.72
2023-04-06T20:23:48.000Z,58.69
2023-04-06T20:26:15.975Z,58.91
2023-04-06T20:28:43.892Z,59.14
2023-04-06T20:31:12.392Z,59.44
2023-04-06T20:33:40.859Z,59.66
2023-04-06T20:36:08.810Z,59.97
2023-04-06T20:38:37.146Z,60.44
2023-04-06T20:41:07.701Z,60.04
2023-04-06T20:43:36.809Z,60.48
2023-04-06T20:46:07.503Z,60.62
2023-04-06T20:48:38.592Z,60.90
2023-04-06T20:51:06.455Z,61.15
2023-04-06T20:53:34.688Z,61.10
2023-04-06T20:56:03.481Z,61.11
2023-04-06T20:58:31.592Z,60.91
2023-04-06T21:00:59.666Z,61.10
2023-04-06T21:03:28.082Z,61.16
2023-04-06T21:06:02.295Z,61.10
2023-04-06T21:08:30.812Z,60.93
2023-04-06T21:10:58.797Z,60.96
2023-04-06T21:13:27.067Z,60.91
2023-04-06T21:15:57.055Z,60.90
2023-04-06T21:18:25.198Z,61.20
2023-04-06T21:20:53.450Z,61.30
2023-04-06T21:23:23.124Z,61.20
2023-04-06T21:25:52.177Z,61.53
2023-04-06T21:28:20.174Z,61.68
2023-04-06T21:30:48.104Z,61.97
2023-04-06T21:33:16.031Z,61.87
2023-04-06T21:35:43.997Z,62.38
2023-04-06T21:38:12.100Z,62.20
2023-04-06T21:40:40.093Z,62.62
2023-04-06T21:43:08.911Z,63.41
2023-04-06T21:45:36.792Z,63.33
2023-04-06T21:48:04.986Z,64.27
2023-04-06T21:50:33.007Z,64.19
2023-04-06T21:53:01.054Z,63.78
2023-04-06T21:55:28.898Z,63.99
2023-04-06T21:57:56.749Z,64.52
2023-04-06T22:00:24.622Z,64.41
2023-04-06T22:02:52.698Z,64.38
2023-04-06T22:05:20.924Z,64.75
2023-04-06T22:07:48.907Z,65.21
2023-04-06T22:10:16.814Z,65.08
2023-04-06T22:12:44.735Z,64.85
2023-04-06T22:15:13.200Z,66.22
2023-04-06T22:17:41.270Z,66.08
2023-04-06T22:20:10.418Z,65.86
2023-04-06T22:22:39.020Z,65.89
2023-04-06T22:25:07.592Z,65.90
2023-04-06T22:27:35.617Z,65.76
2023-04-06T22:30:04.762Z,66.11
2023-04-06T22:32:32.705Z,66.08
2023-04-06T22:35:00.697Z,66.01
2023-04-06T22:37:28.790Z,65.87
2023-04-06T22:39:56.638Z,66.11
2023-04-06T22:42:24.557Z,66.71
2023-04-06T22:44:52.514Z,67.12
2023-04-06T22:47:20.419Z,66.82
2023-04-06T22:49:48.346Z,66.91
2023-04-06T22:52:16.262Z,67.08
2023-04-06T22:54:44.226Z,66.77
2023-04-06T22:57:12.176Z,66.97
2023-04-06T22:59:40.116Z,66.86
2023-04-06T23:02:08.334Z,66.54
2023-04-06T23:04:36.360Z,66.74
2023-04-06T23:07:04.229Z,66.89
2023-04-06T23:09:32.083Z,67.33
2023-04-06T23:12:00.181Z,67.29
2023-04-06T23:14:28.138Z,67.26
2023-04-06T23:16:56.292Z,67.55
2023-04-06T23:19:24.250Z,68.21
2023-04-06T23:21:52.158Z,68.42
2023-04-06T23:24:20.017Z,68.20
2023-04-06T23:26:48.208Z,68.97
2023-04-06T23:29:16.167Z,69.10
2023-04-06T23:31:44.026Z,69.10
2023-04-06T23:34:11.898Z,68.95
2023-04-06T23:36:39.730Z,69.55
2023-04-06T23:39:07.679Z,70.03
2023-04-06T23:41:35.675Z,70.39
2023-04-06T23:44:03.721Z,70.92
2023-04-06T23:46:31.790Z,71.47
2023-04-06T23:48:59.823Z,71.29
2023-04-06T23:51:27.727Z,71.53
2023-04-06T23:53:55.923Z,72.58
2023-04-06T23:56:23.879Z,72.09
2023-04-06T23:58:51.856Z,72.31
